Time;durP1;ratioP1;P1;durP2;ratioP2;P2;SDS_P1;SDS_P2;PMS_P1;PMS_P2;Temp;Humidity;BMP_temperature;BMP_pressure;BME280_temperature;BME280_humidity;BME280_pressure;Samples;Min_cycle;Max_cycle;Signal;HPM_P1;HPM_P2
2022/03/26 00:01:41;;;;;;;211.20;90.70;;;;;;;4.48;88.72;103295.75;4997284;28;20026;-74
2022/03/26 00:04:07;;;;;;;216.70;92.43;;;;;;;4.45;88.80;103290.44;5002274;28;20117;-73
2022/03/26 00:06:33;;;;;;;210.25;94.35;;;;;;;4.47;89.31;103292.25;5006760;28;20100;-73
2022/03/26 00:08:58;;;;;;;211.48;92.00;;;;;;;4.47;89.63;103294.00;4987750;28;20056;-73
2022/03/26 00:11:24;;;;;;;229.73;95.55;;;;;;;4.47;89.67;103294.00;4989560;28;20092;-74
2022/03/26 00:13:49;;;;;;;211.55;94.13;;;;;;;4.44;90.03;103294.81;4989697;28;20154;-73
2022/03/26 00:16:15;;;;;;;224.43;95.05;;;;;;;4.43;90.50;103295.69;4988509;28;20121;-74
2022/03/26 00:18:41;;;;;;;227.25;94.03;;;;;;;4.42;90.94;103299.13;5003929;28;20070;-73
2022/03/26 00:21:07;;;;;;;221.35;95.18;;;;;;;4.42;90.79;103306.13;4989557;28;20470;-73
2022/03/26 00:23:32;;;;;;;234.40;99.00;;;;;;;4.39;90.84;103304.31;4988403;28;20037;-73
2022/03/26 00:25:58;;;;;;;225.80;95.03;;;;;;;4.38;90.93;103305.19;4989356;28;20025;-72
2022/03/26 00:28:24;;;;;;;220.18;93.45;;;;;;;4.37;91.48;103308.66;5007795;28;20500;-74
2022/03/26 00:30:50;;;;;;;223.40;94.78;;;;;;;4.35;91.04;103312.97;4961455;28;20566;-74
2022/03/26 00:33:16;;;;;;;230.13;95.82;;;;;;;4.31;91.07;103305.91;4991236;28;20093;-73
2022/03/26 00:35:42;;;;;;;210.20;89.63;;;;;;;4.28;90.73;103300.59;5005531;28;20736;-73
2022/03/26 00:38:08;;;;;;;217.80;93.55;;;;;;;4.26;91.16;103302.31;4989335;28;21295;-74
2022/03/26 00:40:34;;;;;;;224.15;95.22;;;;;;;4.21;90.86;103302.22;5005582;28;20025;-74
2022/03/26 00:42:59;;;;;;;236.77;98.38;;;;;;;4.20;90.83;103303.09;4977908;28;20045;-73
2022/03/26 00:45:26;;;;;;;229.07;97.35;;;;;;;4.18;91.19;103303.03;4989760;28;20461;-73
2022/03/26 00:47:52;;;;;;;232.52;99.32;;;;;;;4.17;91.78;103290.78;4991895;28;20025;-73
2022/03/26 00:50:17;;;;;;;236.40;97.82;;;;;;;4.16;91.69;103293.38;5007170;28;20025;-73
2022/03/26 00:52:43;;;;;;;228.82;96.43;;;;;;;4.14;91.51;103293.31;5006722;28;20484;-73
2022/03/26 00:55:09;;;;;;;228.25;96.47;;;;;;;4.11;91.77;103293.28;5007765;28;20034;-73
2022/03/26 00:57:36;;;;;;;222.32;95.03;;;;;;;4.10;91.53;103288.00;4992064;28;20080;-72
2022/03/26 01:00:01;;;;;;;234.40;97.15;;;;;;;4.05;91.50;103290.53;4973910;28;20025;-73
2022/03/26 01:02:27;;;;;;;224.65;94.30;;;;;;;4.05;91.48;103298.38;5005482;28;20048;-72
2022/03/26 01:04:53;;;;;;;232.63;98.72;;;;;;;4.03;91.77;103292.22;4987506;28;20052;-72
2022/03/26 01:07:18;;;;;;;218.50;92.72;;;;;;;4.01;91.65;103294.81;5007045;28;20067;-73
2022/03/26 01:09:44;;;;;;;227.85;96.18;;;;;;;3.99;91.87;103283.41;4987826;28;20104;-73
2022/03/26 01:12:10;;;;;;;221.13;95.43;;;;;;;3.97;92.01;103289.47;4984742;28;21058;-72
2022/03/26 01:14:35;;;;;;;222.35;95.00;;;;;;;3.95;91.56;103289.44;4986889;28;20045;-73
2022/03/26 01:17:01;;;;;;;220.77;93.68;;;;;;;3.92;91.80;103290.25;4975061;28;20477;-73
2022/03/26 01:19:27;;;;;;;225.60;95.60;;;;;;;3.90;91.83;103288.44;4988331;28;20034;-73
2022/03/26 01:21:53;;;;;;;227.15;94.60;;;;;;;3.87;91.82;103285.78;4965776;28;20034;-73
2022/03/26 01:24:18;;;;;;;228.13;97.60;;;;;;;3.87;92.30;103281.41;5002877;28;20142;-73
2022/03/26 01:26:44;;;;;;;232.18;96.38;;;;;;;3.87;92.34;103281.41;5005796;28;20553;-72
2022/03/26 01:29:09;;;;;;;227.85;94.18;;;;;;;3.85;92.00;103277.88;4990657;28;20030;-73
2022/03/26 01:31:35;;;;;;;220.30;92.60;;;;;;;3.84;92.32;103280.44;4989933;28;20042;-72
2022/03/26 01:34:01;;;;;;;233.85;97.03;;;;;;;3.84;92.42;103264.72;4972752;28;20418;-73
2022/03/26 01:36:28;;;;;;;231.18;95.93;;;;;;;3.82;92.80;103271.69;4971647;28;20030;-73
2022/03/26 01:38:53;;;;;;;216.48;92.85;;;;;;;3.78;92.17;103276.88;4990608;28;20041;-73
2022/03/26 01:41:20;;;;;;;218.32;90.88;;;;;;;3.77;92.26;103274.19;4973524;28;20030;-73
2022/03/26 01:43:46;;;;;;;216.48;91.82;;;;;;;3.76;92.08;103277.69;4988041;28;20496;-73
2022/03/26 01:46:12;;;;;;;205.80;90.07;;;;;;;3.71;92.20;103274.94;4991039;28;20041;-73
2022/03/26 01:48:39;;;;;;;220.38;92.20;;;;;;;3.70;92.22;103272.28;4970651;28;20072;-73
2022/03/26 01:51:14;;;;;;;217.85;90.22;;;;;;;3.65;92.19;103270.44;4993183;28;20026;-74
2022/03/26 01:53:47;;;;;;;213.32;89.72;;;;;;;3.63;92.29;103266.91;4987743;28;20022;-73
2022/03/26 01:56:14;;;;;;;217.40;91.78;;;;;;;3.60;92.03;103276.44;4986693;28;20079;-73
2022/03/26 01:58:43;;;;;;;213.15;91.90;;;;;;;3.57;92.12;103264.16;4987669;28;20040;-73
2022/03/26 02:01:09;;;;;;;213.35;88.50;;;;;;;3.54;91.99;103266.69;4993208;28;20128;-73
2022/03/26 02:03:35;;;;;;;217.65;89.88;;;;;;;3.51;92.06;103261.38;5003394;28;20131;-73
2022/03/26 02:06:01;;;;;;;209.48;89.43;;;;;;;3.49;91.93;103268.34;4988220;28;20113;-73
2022/03/26 02:08:26;;;;;;;219.27;92.22;;;;;;;3.45;92.10;103266.50;4990690;28;20039;-73
2022/03/26 02:10:52;;;;;;;223.95;96.18;;;;;;;3.44;92.51;103265.63;4993346;28;20441;-73
2022/03/26 02:13:18;;;;;;;225.35;93.88;;;;;;;3.42;92.28;103261.19;4980129;28;20147;-73
2022/03/26 02:15:44;;;;;;;231.23;93.82;;;;;;;3.39;92.27;103264.63;4975141;28;20033;-73
2022/03/26 02:18:09;;;;;;;231.30;94.70;;;;;;;3.35;92.40;103263.66;4989891;28;20029;-73
2022/03/26 02:20:35;;;;;;;230.73;96.07;;;;;;;3.34;92.56;103256.66;4991716;28;20091;-73
2022/03/26 02:23:01;;;;;;;228.98;94.20;;;;;;;3.33;93.25;103257.47;5009817;28;21268;-73
2022/03/26 02:25:27;;;;;;;238.85;95.47;;;;;;;3.34;93.12;103248.81;5008390;28;20110;-73
2022/03/26 02:27:53;;;;;;;240.57;95.88;;;;;;;3.34;93.69;103246.19;4976348;28;20141;-73
2022/03/26 02:30:20;;;;;;;243.52;98.85;;;;;;;3.34;93.69;103251.41;4989874;28;20130;-73
2022/03/26 02:32:45;;;;;;;259.38;98.95;;;;;;;3.34;93.92;103248.81;4990914;28;20033;-73
2022/03/26 02:35:11;;;;;;;243.63;97.30;;;;;;;3.37;94.35;103242.72;5007240;28;20036;-73
2022/03/26 02:37:37;;;;;;;229.80;94.63;;;;;;;3.36;94.53;103252.34;5008349;28;20029;-73
2022/03/26 02:40:06;;;;;;;244.63;99.63;;;;;;;3.36;94.29;103241.84;5007847;28;20753;-73
2022/03/26 02:42:33;;;;;;;241.25;97.47;;;;;;;3.36;94.49;103248.81;4991218;28;20072;-73
2022/03/26 02:44:59;;;;;;;249.38;98.35;;;;;;;3.37;95.05;103242.72;5008529;28;20041;-73
2022/03/26 02:47:25;;;;;;;253.50;100.13;;;;;;;3.36;95.01;103241.84;5008728;28;20443;-73
2022/03/26 02:49:50;;;;;;;272.50;105.65;;;;;;;3.36;95.52;103241.84;4989386;28;20040;-73
2022/03/26 02:52:16;;;;;;;280.10;106.25;;;;;;;3.36;95.69;103236.63;4991513;28;20025;-73
2022/03/26 02:54:42;;;;;;;284.60;105.47;;;;;;;3.38;96.13;103231.44;5008519;28;20037;-73
2022/03/26 02:57:07;;;;;;;279.65;108.60;;;;;;;3.37;96.31;103230.53;4990694;28;20053;-73
2022/03/26 02:59:33;;;;;;;264.10;103.93;;;;;;;3.35;96.26;103227.00;5008105;28;20034;-73
2022/03/26 03:01:59;;;;;;;256.80;100.45;;;;;;;3.34;96.85;103230.47;5007302;28;20064;-72
2022/03/26 03:04:25;;;;;;;277.17;105.57;;;;;;;3.33;96.80;103225.19;4989168;28;20074;-72
2022/03/26 03:06:51;;;;;;;267.83;102.95;;;;;;;3.32;97.23;103224.28;5007034;28;20025;-73
2022/03/26 03:09:17;;;;;;;287.00;106.90;;;;;;;3.31;97.47;103225.16;5006335;28;20049;-73
2022/03/26 03:11:43;;;;;;;276.65;105.50;;;;;;;3.31;97.60;103227.75;5007886;28;20080;-73
2022/03/26 03:14:10;;;;;;;278.08;105.38;;;;;;;3.30;97.54;103226.00;5007989;28;20423;-73
2022/03/26 03:16:36;;;;;;;258.23;99.30;;;;;;;3.28;97.73;103232.94;4989926;28;20050;-73
2022/03/26 03:19:06;;;;;;;270.33;103.85;;;;;;;3.25;97.92;103230.22;5007698;28;20041;-72
2022/03/26 03:21:32;;;;;;;260.70;99.47;;;;;;;3.22;97.64;103228.44;5005538;28;20053;-74
2022/03/26 03:23:57;;;;;;;257.25;100.70;;;;;;;3.20;98.00;103234.47;4994694;28;20045;-73
2022/03/26 03:26:23;;;;;;;270.02;100.80;;;;;;;3.19;97.83;103235.31;4990081;28;20041;-73
2022/03/26 03:28:48;;;;;;;279.25;104.82;;;;;;;3.16;98.18;103225.66;4987691;28;20095;-73
2022/03/26 03:31:14;;;;;;;279.23;105.43;;;;;;;3.16;98.17;103228.28;4989424;28;20073;-74
2022/03/26 03:33:40;;;;;;;292.88;108.60;;;;;;;3.15;98.63;103226.50;5007130;28;20067;-73
2022/03/26 03:36:05;;;;;;;278.10;105.80;;;;;;;3.15;98.73;103220.41;4973309;28;20125;-73
2022/03/26 03:38:31;;;;;;;282.92;106.00;;;;;;;3.12;99.02;103223.84;5007230;28;20076;-73
2022/03/26 03:40:57;;;;;;;287.65;104.38;;;;;;;3.10;98.93;103223.78;5005696;28;20304;-72
2022/03/26 03:43:23;;;;;;;274.63;101.65;;;;;;;3.08;98.97;103235.97;4989754;28;20033;-73
2022/03/26 03:45:49;;;;;;;279.55;104.90;;;;;;;3.07;98.87;103233.31;5007498;28;20034;-75
2022/03/26 03:48:14;;;;;;;276.40;101.57;;;;;;;3.05;98.85;103228.03;5008061;28;20123;-73
2022/03/26 03:50:40;;;;;;;282.33;108.15;;;;;;;3.06;99.36;103231.53;4988657;28;21741;-72
2022/03/26 03:53:06;;;;;;;274.35;105.47;;;;;;;3.05;99.50;103230.63;4993439;28;20846;-72
2022/03/26 03:55:32;;;;;;;306.48;110.35;;;;;;;3.05;99.34;103228.03;4990120;28;20056;-74
2022/03/26 03:57:57;;;;;;;316.40;111.85;;;;;;;3.08;100.00;103222.88;5008033;28;21279;-74
2022/03/26 04:00:23;;;;;;;297.40;107.50;;;;;;;3.11;100.00;103225.56;4994522;28;20121;-73
2022/03/26 04:02:48;;;;;;;322.45;112.65;;;;;;;3.11;100.00;103215.09;5007554;28;20041;-73
2022/03/26 04:05:14;;;;;;;308.50;110.95;;;;;;;3.14;100.00;103221.25;4989150;28;20103;-73
2022/03/26 04:07:41;;;;;;;308.58;111.82;;;;;;;3.15;100.00;103212.56;4988938;28;20037;-73
2022/03/26 04:10:07;;;;;;;314.75;112.72;;;;;;;3.15;100.00;103209.94;4989224;28;20124;-72
2022/03/26 04:12:38;;;;;;;315.02;113.97;;;;;;;3.17;100.00;103213.47;5007628;28;20049;-73
2022/03/26 04:15:05;;;;;;;288.00;108.00;;;;;;;3.18;100.00;103213.50;4989690;28;20034;-73
2022/03/26 04:17:32;;;;;;;301.55;109.45;;;;;;;3.22;100.00;103222.31;5006834;28;20037;-73
2022/03/26 04:19:59;;;;;;;288.00;106.55;;;;;;;3.23;100.00;103218.84;4988535;28;20052;-72
2022/03/26 04:22:25;;;;;;;304.88;112.28;;;;;;;3.24;100.00;103225.84;4975149;28;20041;-73
2022/03/26 04:24:50;;;;;;;295.42;109.15;;;;;;;3.24;100.00;103218.00;5007108;28;20370;-74
2022/03/26 04:27:16;;;;;;;299.63;108.72;;;;;;;3.25;100.00;103223.28;4989541;28;20025;-73
2022/03/26 04:29:41;;;;;;;299.63;111.55;;;;;;;3.24;100.00;103218.00;5006795;28;20429;-74
2022/03/26 04:32:10;;;;;;;302.35;107.93;;;;;;;3.25;100.00;103220.66;4974775;28;20991;-72
2022/03/26 04:34:37;;;;;;;293.17;110.85;;;;;;;3.28;100.00;103232.94;5006813;28;20133;-72
2022/03/26 04:37:04;;;;;;;283.27;106.93;;;;;;;3.30;100.00;103236.47;5003467;28;20376;-73
2022/03/26 04:39:30;;;;;;;294.08;107.75;;;;;;;3.32;100.00;103240.00;4989356;28;20033;-74
2022/03/26 04:41:55;;;;;;;301.35;110.60;;;;;;;3.32;100.00;103234.75;4989785;28;20033;-73
2022/03/26 04:44:21;;;;;;;295.77;106.20;;;;;;;3.33;100.00;103243.53;5007999;28;20117;-74
2022/03/26 04:46:46;;;;;;;281.83;105.32;;;;;;;3.33;100.00;103244.38;4958317;28;20044;-74
2022/03/26 04:49:12;;;;;;;263.67;99.88;;;;;;;3.32;100.00;103244.38;4988954;28;21889;-74
2022/03/26 04:51:37;;;;;;;268.38;101.38;;;;;;;3.29;100.00;103244.28;4988966;28;20231;-73
2022/03/26 04:54:03;;;;;;;270.27;100.78;;;;;;;3.24;100.00;103247.69;4987649;28;20087;-74
2022/03/26 04:56:29;;;;;;;298.95;106.28;;;;;;;3.23;100.00;103248.53;5006413;28;20102;-73
2022/03/26 04:58:55;;;;;;;284.65;105.03;;;;;;;3.23;100.00;103251.13;5004947;28;20554;-74
2022/03/26 05:01:22;;;;;;;288.33;105.20;;;;;;;3.23;100.00;103245.03;4989228;28;20068;-73
2022/03/26 05:03:48;;;;;;;292.90;104.43;;;;;;;3.22;100.00;103249.38;5004250;28;20039;-74
2022/03/26 05:06:14;;;;;;;281.98;104.05;;;;;;;3.20;100.00;103244.94;4993315;28;20052;-74
2022/03/26 05:08:40;;;;;;;287.80;102.03;;;;;;;3.19;100.00;103253.66;5005061;28;20049;-73
2022/03/26 05:11:05;;;;;;;274.83;99.68;;;;;;;3.17;100.00;103251.03;5004380;28;20095;-73
2022/03/26 05:13:31;;;;;;;286.48;102.05;;;;;;;3.17;100.00;103255.34;5006766;28;20467;-73
2022/03/26 05:15:57;;;;;;;294.05;106.57;;;;;;;3.17;100.00;103257.97;4989956;28;20029;-74
2022/03/26 05:18:22;;;;;;;288.95;103.70;;;;;;;3.17;100.00;103257.97;4987524;28;20081;-74
2022/03/26 05:20:48;;;;;;;274.67;101.72;;;;;;;3.17;100.00;103257.97;4988109;28;20934;-74
2022/03/26 05:23:13;;;;;;;271.67;99.93;;;;;;;3.16;100.00;103264.06;5002313;28;20044;-74
2022/03/26 05:25:39;;;;;;;286.67;102.68;;;;;;;3.12;100.00;103258.72;4989801;28;20030;-74
2022/03/26 05:28:05;;;;;;;286.30;103.90;;;;;;;3.15;100.00;103262.28;5005441;28;20029;-74
2022/03/26 05:30:31;;;;;;;271.20;99.00;;;;;;;3.12;100.00;103258.72;5005938;28;20029;-74
2022/03/26 05:32:56;;;;;;;272.45;102.50;;;;;;;3.11;100.00;103267.44;5005355;28;20032;-74
2022/03/26 05:35:22;;;;;;;289.70;103.72;;;;;;;3.10;100.00;103270.91;5004359;28;20120;-74
2022/03/26 05:37:49;;;;;;;275.58;102.43;;;;;;;3.10;100.00;103270.91;4986335;28;20063;-73
2022/03/26 05:40:17;;;;;;;286.40;103.22;;;;;;;3.10;100.00;103275.25;5007493;28;20141;-74
2022/03/26 05:42:44;;;;;;;279.95;101.28;;;;;;;3.08;100.00;103272.63;4988736;28;20133;-73
2022/03/26 05:45:10;;;;;;;312.30;104.80;;;;;;;3.09;100.00;103279.63;5003913;28;20042;-73
2022/03/26 05:47:37;;;;;;;289.23;103.00;;;;;;;3.09;100.00;103274.38;4987009;28;20037;-74
2022/03/26 05:50:07;;;;;;;330.05;110.22;;;;;;;3.11;100.00;103282.28;4986549;28;20033;-74
2022/03/26 05:52:33;;;;;;;305.13;110.13;;;;;;;3.19;100.00;103285.06;5004350;28;20034;-73
2022/03/26 05:54:58;;;;;;;298.60;103.90;;;;;;;3.21;100.00;103293.88;5006395;28;20568;-73
2022/03/26 05:57:24;;;;;;;279.13;101.65;;;;;;;3.22;100.00;103296.50;4976588;28;20026;-74
2022/03/26 05:59:50;;;;;;;290.55;102.53;;;;;;;3.22;100.00;103293.03;4991325;28;20128;-73
2022/03/26 06:02:16;;;;;;;307.33;107.05;;;;;;;3.25;100.00;103300.94;5006120;28;20049;-74
2022/03/26 06:04:42;;;;;;;281.10;102.00;;;;;;;3.25;100.00;103299.22;4991890;28;20072;-73
2022/03/26 06:07:08;;;;;;;307.05;105.20;;;;;;;3.27;100.00;103304.47;5003042;28;20103;-73
2022/03/26 06:09:35;;;;;;;288.77;104.05;;;;;;;3.30;100.00;103299.31;5006585;28;20044;-74
2022/03/26 06:12:00;;;;;;;287.75;104.20;;;;;;;3.34;100.00;103306.41;5005392;28;20092;-73
2022/03/26 06:14:26;;;;;;;303.77;107.20;;;;;;;3.37;100.00;103311.72;5008469;28;20120;-73
2022/03/26 06:16:55;;;;;;;286.25;103.00;;;;;;;3.43;100.00;103315.34;4989515;28;20122;-73
2022/03/26 06:19:20;;;;;;;288.65;107.18;;;;;;;3.48;100.00;103317.22;4992681;28;20965;-74
2022/03/26 06:21:45;;;;;;;298.15;108.65;;;;;;;3.54;100.00;103324.31;5009050;28;20040;-74
2022/03/26 06:24:12;;;;;;;284.33;105.50;;;;;;;3.60;100.00;103316.59;4986149;28;20138;-73
2022/03/26 06:26:39;;;;;;;289.70;104.28;;;;;;;3.67;100.00;103321.13;5006238;28;20033;-74
2022/03/26 06:29:05;;;;;;;274.65;104.35;;;;;;;3.74;100.00;103321.28;5008658;28;20018;-74
2022/03/26 06:31:31;;;;;;;287.45;105.28;;;;;;;3.83;100.00;103321.50;4990349;28;20025;-74
2022/03/26 06:33:57;;;;;;;281.63;106.78;;;;;;;3.92;100.00;103318.22;4993009;28;20395;-74
2022/03/26 06:36:23;;;;;;;274.05;103.70;;;;;;;4.02;100.00;103329.75;4989162;28;20301;-74
2022/03/26 06:38:48;;;;;;;273.75;104.60;;;;;;;4.08;100.00;103327.28;5006100;28;20124;-74
2022/03/26 06:41:14;;;;;;;267.00;102.47;;;;;;;4.17;100.00;103335.38;5007019;28;20103;-74
2022/03/26 06:43:41;;;;;;;277.85;104.07;;;;;;;4.26;100.00;103337.31;4989175;28;20100;-74
2022/03/26 06:46:07;;;;;;;280.25;105.53;;;;;;;4.35;100.00;103337.47;4977691;28;21431;-74
2022/03/26 06:48:33;;;;;;;287.10;106.43;;;;;;;4.44;100.00;103331.53;5006362;28;20037;-73
2022/03/26 06:51:00;;;;;;;270.23;105.32;;;;;;;4.52;100.00;103334.31;4995619;28;20033;-74
2022/03/26 06:53:30;;;;;;;265.88;102.25;;;;;;;4.63;100.00;103342.38;4990880;28;20025;-74
2022/03/26 06:55:56;;;;;;;252.98;102.43;;;;;;;4.72;100.00;103342.59;5008505;28;20531;-73
2022/03/26 06:58:22;;;;;;;253.52;102.32;;;;;;;4.82;100.00;103337.50;4994651;28;20500;-74
2022/03/26 07:00:48;;;;;;;245.85;99.55;;;;;;;4.92;100.00;103339.44;4988988;28;20126;-74
2022/03/26 07:03:13;;;;;;;248.25;100.05;;;;;;;5.03;100.00;103337.00;5005637;28;20109;-73
2022/03/26 07:05:39;;;;;;;247.73;101.10;;;;;;;5.13;100.00;103333.69;5005658;28;20082;-74
2022/03/26 07:08:05;;;;;;;241.40;96.63;;;;;;;5.24;100.00;103343.50;4988731;28;20040;-74
2022/03/26 07:10:31;;;;;;;237.48;99.03;;;;;;;5.32;100.00;103344.50;5008131;28;20092;-74
2022/03/26 07:12:56;;;;;;;241.93;101.47;;;;;;;5.43;100.00;103344.69;4988769;28;20469;-75
2022/03/26 07:15:22;;;;;;;238.02;100.50;;;;;;;5.54;100.00;103342.22;4990382;28;20048;-76
2022/03/26 07:17:47;;;;;;;220.27;95.07;;;;;;;5.63;100.00;103345.00;5007127;28;20533;-72
2022/03/26 07:20:14;;;;;;;219.43;91.28;;;;;;;5.73;100.00;103350.41;5006170;28;20211;-72
2022/03/26 07:22:44;;;;;;;211.60;92.07;;;;;;;5.84;100.00;103354.94;5005222;28;20035;-72
2022/03/26 07:25:10;;;;;;;208.18;92.40;;;;;;;5.92;100.00;103356.81;5006348;28;20652;-72
2022/03/26 07:27:36;;;;;;;209.75;89.22;;;;;;;6.01;100.00;103351.69;4989465;28;20037;-72
2022/03/26 07:30:03;;;;;;;195.52;86.28;;;;;;;6.10;100.00;103354.47;4995277;28;20034;-72
2022/03/26 07:32:29;;;;;;;190.70;86.28;;;;;;;6.17;100.00;103352.81;5008432;28;20030;-72
2022/03/26 07:34:55;;;;;;;191.32;85.32;;;;;;;6.27;100.00;103364.34;4993304;28;20830;-72
2022/03/26 07:37:21;;;;;;;181.85;82.15;;;;;;;6.38;100.00;103364.50;4990474;28;20116;-76
2022/03/26 07:39:46;;;;;;;194.52;85.03;;;;;;;6.48;100.00;103366.34;4989086;28;20056;-74
2022/03/26 07:42:12;;;;;;;182.77;83.55;;;;;;;6.57;100.00;103370.84;4990870;28;20584;-74
2022/03/26 07:44:38;;;;;;;451.77;223.35;;;;;;;6.65;100.00;103360.44;4968438;28;20040;-74
2022/03/26 07:47:04;;;;;;;191.77;89.90;;;;;;;6.73;100.00;103363.13;5003012;28;21358;-74
2022/03/26 07:49:30;;;;;;;184.15;83.85;;;;;;;6.84;100.00;103360.59;5002303;28;20534;-74
2022/03/26 07:51:55;;;;;;;176.77;82.03;;;;;;;6.92;100.00;103357.19;5005508;28;20037;-74
2022/03/26 07:54:20;;;;;;;188.68;87.03;;;;;;;7.04;100.00;103359.06;5007785;28;20049;-73
2022/03/26 07:56:46;;;;;;;179.95;89.28;;;;;;;7.17;100.00;103364.44;4989957;28;20030;-74
2022/03/26 07:59:12;;;;;;;178.20;82.22;;;;;;;7.30;100.00;103349.66;5005633;28;20021;-74
2022/03/26 08:01:37;;;;;;;175.70;84.82;;;;;;;7.41;100.00;103353.22;5007474;28;20190;-74
2022/03/26 08:04:03;;;;;;;180.15;90.60;;;;;;;7.51;100.00;103362.09;5007280;28;20288;-74
2022/03/26 08:06:28;;;;;;;155.98;75.28;;;;;;;7.64;100.00;103357.81;5008099;28;20032;-74
2022/03/26 08:08:54;;;;;;;155.93;72.30;;;;;;;7.75;100.00;103358.75;5008848;28;20602;-74
2022/03/26 08:11:19;;;;;;;149.00;71.80;;;;;;;7.86;100.00;103353.53;4989721;28;20403;-74
2022/03/26 08:13:45;;;;;;;141.35;69.50;;;;;;;7.96;100.00;103353.63;5007344;28;20056;-74
2022/03/26 08:16:10;;;;;;;139.20;66.05;;;;;;;8.07;100.00;103358.97;5007454;28;20033;-74
2022/03/26 08:18:36;;;;;;;142.43;67.90;;;;;;;8.17;100.00;103355.47;5006120;28;20120;-74
2022/03/26 08:21:03;;;;;;;136.05;66.25;;;;;;;8.28;100.00;103353.78;4973356;28;20068;-75
2022/03/26 08:23:28;;;;;;;132.20;65.68;;;;;;;8.41;100.00;103353.84;5006331;28;20737;-75
2022/03/26 08:28:38;;;;;;;130.57;64.65;;;;;;;8.62;100.00;103363.63;5002955;28;20747;-74
2022/03/26 08:31:04;;;;;;;137.25;65.43;;;;;;;8.70;100.00;103355.72;5003943;28;20037;-74
2022/03/26 08:33:30;;;;;;;129.45;62.28;;;;;;;8.76;100.00;103355.72;4990880;28;20095;-74
2022/03/26 08:35:55;;;;;;;118.72;60.72;;;;;;;8.88;100.00;103359.28;5004356;28;20033;-75
2022/03/26 08:38:44;;;;;;;126.15;63.85;;;;;;;8.96;100.00;103358.44;4979107;28;20538;-76
2022/03/26 08:41:17;;;;;;;125.15;68.45;;;;;;;9.09;100.00;103348.75;4975867;28;20045;-76
2022/03/26 08:43:43;;;;;;;116.13;60.38;;;;;;;9.17;100.00;103356.69;5007247;28;20034;-73
2022/03/26 08:46:10;;;;;;;123.25;62.15;;;;;;;9.28;99.52;103363.72;5007125;28;20547;-76
2022/03/26 08:48:35;;;;;;;118.72;59.05;;;;;;;9.37;99.05;103361.06;5007184;28;20044;-76
2022/03/26 08:51:02;;;;;;;119.53;60.53;;;;;;;9.46;98.88;103370.78;5007935;28;20042;-75
2022/03/26 08:53:28;;;;;;;120.55;61.03;;;;;;;9.57;98.40;103376.06;5007199;28;20072;-74
2022/03/26 08:55:54;;;;;;;109.93;55.22;;;;;;;9.64;97.58;103365.47;4988509;28;20167;-75
2022/03/26 08:58:20;;;;;;;110.28;55.20;;;;;;;9.73;96.60;103374.28;5007120;28;20037;-76
2022/03/26 09:00:47;;;;;;;107.40;53.53;;;;;;;9.81;95.31;103372.50;5006209;28;20032;-75
2022/03/26 09:03:17;;;;;;;101.32;51.78;;;;;;;9.88;95.14;103373.38;5006721;28;20041;-74
2022/03/26 09:05:43;;;;;;;98.95;52.10;;;;;;;9.99;94.41;103368.94;5006769;28;20759;-74
2022/03/26 09:08:09;;;;;;;101.70;53.08;;;;;;;10.06;93.97;103375.09;5006581;28;20054;-74
2022/03/26 09:10:35;;;;;;;93.80;49.72;;;;;;;10.14;92.85;103372.44;5004872;28;20030;-74
2022/03/26 09:13:01;;;;;;;102.40;51.15;;;;;;;10.21;92.92;103378.56;5004867;28;20103;-74
2022/03/26 09:15:26;;;;;;;97.05;49.47;;;;;;;10.27;92.81;103379.44;4986492;28;20092;-74
2022/03/26 09:17:52;;;;;;;91.70;49.75;;;;;;;10.37;92.21;103374.09;5005740;28;20061;-75
2022/03/26 09:20:17;;;;;;;87.72;45.78;;;;;;;10.45;92.15;103386.47;5002969;28;20177;-74
2022/03/26 09:22:43;;;;;;;77.05;41.22;;;;;;;10.53;91.80;103385.56;4989009;28;20717;-75
2022/03/26 09:25:09;;;;;;;85.18;44.20;;;;;;;10.59;90.65;103389.03;4988585;28;20099;-75
2022/03/26 09:27:35;;;;;;;80.10;43.13;;;;;;;10.63;89.95;103392.59;5004018;28;20559;-74
2022/03/26 09:30:00;;;;;;;89.32;44.70;;;;;;;10.69;89.89;103379.28;4974616;28;20129;-76
2022/03/26 09:32:26;;;;;;;84.07;44.92;;;;;;;10.73;89.57;103391.63;5005156;28;20084;-75
2022/03/26 09:34:51;;;;;;;76.07;43.88;;;;;;;10.78;89.58;103388.09;4989737;28;20104;-75
2022/03/26 09:37:17;;;;;;;81.00;42.80;;;;;;;10.86;89.57;103391.56;5006742;28;20050;-75
2022/03/26 09:39:54;;;;;;;83.38;44.80;;;;;;;10.92;89.02;103388.00;5007531;28;20181;-75
2022/03/26 09:42:40;;;;;;;69.55;39.10;;;;;;;11.00;88.67;103380.84;5007207;28;20034;-75
2022/03/26 09:45:07;;;;;;;65.10;36.45;;;;;;;11.07;88.61;103389.66;5006365;28;20057;-75
2022/03/26 09:47:34;;;;;;;67.60;38.63;;;;;;;11.12;87.96;103379.91;5007397;28;20030;-76
2022/03/26 09:50:00;;;;;;;64.57;37.47;;;;;;;11.16;88.20;103384.28;4991169;28;20155;-76
2022/03/26 09:52:26;;;;;;;69.60;39.30;;;;;;;11.21;87.83;103382.50;4979910;28;20491;-76
2022/03/26 09:54:51;;;;;;;65.78;37.92;;;;;;;11.20;87.55;103372.78;5008575;28;20025;-76
2022/03/26 09:57:17;;;;;;;46.55;29.70;;;;;;;11.24;87.31;103377.16;5010349;28;20033;-75
2022/03/26 09:59:43;;;;;;;52.90;30.60;;;;;;;11.28;87.03;103376.25;4992014;28;20255;-75
2022/03/26 10:02:08;;;;;;;43.75;27.92;;;;;;;11.33;87.04;103370.91;5009445;28;20029;-74
2022/03/26 10:04:38;;;;;;;47.70;28.83;;;;;;;11.43;86.41;103378.78;5009883;28;20300;-74
2022/03/26 10:07:04;;;;;;;45.47;29.55;;;;;;;11.50;86.55;103383.16;5008541;28;20061;-74
2022/03/26 10:09:41;;;;;;;45.00;29.58;;;;;;;11.55;86.41;103374.25;5008553;28;20552;-74
2022/03/26 10:12:13;;;;;;;44.50;27.88;;;;;;;11.61;86.34;103372.44;5009849;28;20404;-75
2022/03/26 10:14:47;;;;;;;43.22;26.67;;;;;;;11.70;85.97;103375.00;4976232;28;20100;-75
2022/03/26 10:17:19;;;;;;;38.60;24.27;;;;;;;11.73;85.17;103369.66;4991119;28;20025;-75
2022/03/26 10:19:48;;;;;;;34.17;21.38;;;;;;;11.81;84.17;103375.78;5009019;28;20033;-76
2022/03/26 10:22:29;;;;;;;35.58;21.90;;;;;;;11.89;82.99;103372.16;4995304;28;20451;-75
2022/03/26 10:24:57;;;;;;;31.88;21.45;;;;;;;11.95;83.03;103374.75;5010043;28;20346;-75
2022/03/26 10:27:23;;;;;;;35.65;21.20;;;;;;;12.00;82.23;103372.03;4990720;28;20377;-75
2022/03/26 10:29:57;;;;;;;32.72;22.20;;;;;;;12.05;81.46;103379.06;4988227;28;20029;-76
2022/03/26 10:32:41;;;;;;;31.65;21.10;;;;;;;12.12;80.85;103373.69;4991339;28;20036;-75
2022/03/26 10:35:19;;;;;;;31.10;19.67;;;;;;;12.18;80.65;103374.53;5008175;28;20029;-75
2022/03/26 10:37:55;;;;;;;27.42;19.05;;;;;;;12.24;79.90;103373.56;4991786;28;20030;-75
2022/03/26 10:40:39;;;;;;;28.67;19.05;;;;;;;12.28;79.12;103367.31;5011054;28;20095;-75
2022/03/26 10:43:08;;;;;;;31.85;19.58;;;;;;;12.33;79.38;103360.16;5011882;28;20029;-76
2022/03/26 10:45:48;;;;;;;28.35;17.92;;;;;;;12.40;78.94;103357.41;4992546;28;20033;-75
2022/03/26 10:48:14;;;;;;;26.55;15.82;;;;;;;12.45;78.25;103358.25;4991184;28;20127;-76
2022/03/26 10:50:40;;;;;;;22.60;14.82;;;;;;;12.48;78.14;103360.88;5007311;28;20116;-76
2022/03/26 10:53:11;;;;;;;22.27;12.52;;;;;;;12.50;76.76;103359.94;5009422;28;20033;-76
2022/03/26 10:55:40;;;;;;;22.75;14.02;;;;;;;12.56;77.35;103361.66;4989040;28;20495;-75
2022/03/26 10:58:06;;;;;;;17.20;12.80;;;;;;;12.59;76.06;103364.25;5008108;28;20029;-76
2022/03/26 11:00:32;;;;;;;19.90;13.38;;;;;;;12.62;76.45;103353.59;5007932;28;20032;-75
2022/03/26 11:02:58;;;;;;;17.33;12.75;;;;;;;12.70;75.76;103355.25;4991526;28;20037;-76